Llano, TX (78643)

9:50 PM CST on December 27, 2014 (GMT -0600)
MURRAY RIVER HOUSE | Change Station
CLOSE
Current Station
Personal Weather Station
Location: Llano, TX
Elevation: 1042 ft
Nearby Weather Stations

Elev 1042 ft 30.75 °N, 98.74 °W | Updated 11 minutes ago

Overcast
Overcast
44.4 °F
Feels Like 40 °F
N
9.0
Wind Variable Wind from WNW

Today
High -- | Low -- °F
--% Chance of Precip.
Yesterday
High -- | Low -- °F
Precip. -- in
7:30 AM 5:40 PM
Waxing Crescent, 43% visible
Pressure 30.33 in
Visibility 10.0 miles
Clouds Few 4800 ft
Mostly Cloudy 6000 ft
Windchill 40 °F
Dew Point Not available.
Humidity Not available.
Rainfall 0.38 in
Snow Depth Not available.
UV 0 out of 12
Pollen 8.80 out of 12
Air Quality Not available.
Flu Activity Not available.
METAR KAQO 280335Z AUTO 36007KT 10SM FEW048 BKN060 03/00 A3033 RMK AO2

More Conditions Fewer Conditions

Pressure 30.33 in
Visibility 10.0 miles
Clouds Few 4800 ft
Mostly Cloudy 6000 ft
Windchill 40 °F
Dew Point Not available.
Humidity Not available.
Rainfall 0.38 in
Snow Depth Not available.
UV 0 out of 12
Pollen 8.80 out of 12
Air Quality Not available.
Flu Activity Not available.
METAR KAQO 280335Z AUTO 36007KT 10SM FEW048 BKN060 03/00 A3033 RMK AO2

More Conditions Fewer Conditions

10-Day Weather Forecast

Almanac

Astronomy

Dec. 27, 2014 Rise Set
Actual Time
Civil Twilight
Nautical Twilight
Astronomical Twilight
Moon
Length of Visible Light
Length of Day
Tomorrow will be .
, % of the Moon is Illuminated

Today's Extremes

State Highs State Lows

Community

WunderPhotos

Upload Photos

1,781,185 photos uploaded!

WunderBlogs® & News

Nearby

Air Quality

  Air Quality AQ Index Pollutant
Not available.

Snow Depth

Station Depth Elevation

Earthquake Activity

City Distance Mag. Time & Date
Minimum magnitude displayed is 2.5.

Coastal Water Temperatures

Place Temperature

Nearby Weather Stations